createdAt,value
2023-01-23T00:01:20.730Z,41.37
2023-01-23T00:03:47.937Z,33.47
2023-01-23T00:06:16.782Z,32.50
2023-01-23T00:08:45.456Z,37.23
2023-01-23T00:11:16.211Z,29.70
2023-01-23T00:13:43.212Z,31.77
2023-01-23T00:16:15.024Z,36.20
2023-01-23T00:18:42.181Z,31.47
2023-01-23T00:21:11.823Z,32.23
2023-01-23T00:23:42.715Z,38.30
2023-01-23T00:26:13.169Z,33.77
2023-01-23T00:28:39.999Z,30.40
2023-01-23T00:31:15.736Z,39.17
2023-01-23T00:33:44.389Z,46.93
2023-01-23T00:36:12.690Z,34.27
2023-01-23T00:38:40.250Z,35.83
2023-01-23T00:41:08.092Z,36.10
2023-01-23T00:43:34.974Z,35.63
2023-01-23T00:46:02.237Z,33.03
2023-01-23T00:48:29.326Z,36.70
2023-01-23T00:50:56.776Z,32.40
2023-01-23T00:53:24.566Z,41.67
2023-01-23T00:55:51.662Z,34.37
2023-01-23T00:58:18.827Z,36.40
2023-01-23T01:00:46.860Z,33.27
2023-01-23T01:03:14.125Z,39.93
2023-01-23T01:05:42.533Z,39.73
2023-01-23T01:08:10.108Z,37.33
2023-01-23T01:10:39.369Z,31.50
2023-01-23T01:13:06.495Z,39.60
2023-01-23T01:15:33.710Z,40.73
2023-01-23T01:18:02.036Z,37.23
2023-01-23T01:20:30.013Z,34.77
2023-01-23T01:22:59.033Z,41.73
2023-01-23T01:25:27.226Z,33.77
2023-01-23T01:27:56.013Z,35.83
2023-01-23T01:30:25.511Z,37.23
2023-01-23T01:32:53.147Z,36.37
2023-01-23T01:35:20.875Z,35.80
2023-01-23T01:37:48.631Z,37.30
2023-01-23T01:40:32.175Z,35.90
2023-01-23T01:43:02.165Z,33.23
2023-01-23T01:45:56.813Z,31.90
2023-01-23T01:48:38.530Z,36.57
2023-01-23T01:51:21.172Z,37.83
2023-01-23T01:53:54.511Z,39.17
2023-01-23T01:56:21.754Z,39.50
2023-01-23T01:58:52.656Z,38.70
2023-01-23T02:01:21.181Z,38.37
2023-01-23T02:03:55.415Z,36.17
2023-01-23T02:06:22.814Z,35.67
2023-01-23T02:08:55.568Z,36.07
2023-01-23T02:11:22.566Z,37.40
2023-01-23T02:13:51.123Z,33.57
2023-01-23T02:16:25.150Z,36.93
2023-01-23T02:18:54.867Z,33.33
2023-01-23T02:21:25.360Z,31.40
2023-01-23T02:24:35.509Z,42.23
2023-01-23T02:27:03.291Z,37.07
2023-01-23T02:29:45.995Z,43.03
2023-01-23T02:32:12.870Z,38.10
2023-01-23T02:34:42.173Z,42.23
2023-01-23T02:37:09.678Z,37.00
2023-01-23T02:39:37.529Z,37.27
2023-01-23T02:42:06.195Z,35.10
2023-01-23T02:44:33.216Z,34.83
2023-01-23T02:47:04.198Z,37.47
2023-01-23T02:49:31.291Z,42.07
2023-01-23T02:51:59.313Z,34.50
2023-01-23T02:54:26.915Z,39.83
2023-01-23T02:56:53.890Z,38.43
2023-01-23T02:59:39.487Z,36.70
2023-01-23T03:02:06.634Z,39.87
2023-01-23T03:04:33.792Z,35.20
2023-01-23T03:07:06.630Z,35.07
2023-01-23T03:09:33.698Z,39.20
2023-01-23T03:12:01.793Z,33.40
2023-01-23T03:14:31.739Z,38.10
2023-01-23T03:16:59.065Z,37.80
2023-01-23T03:19:27.136Z,33.10
2023-01-23T03:21:54.895Z,37.37
2023-01-23T03:24:22.919Z,35.83
2023-01-23T03:26:51.230Z,39.80
2023-01-23T03:29:42.692Z,34.00
2023-01-23T03:32:11.443Z,37.00
2023-01-23T03:34:39.323Z,38.03
2023-01-23T03:37:08.063Z,32.10
2023-01-23T03:39:54.043Z,39.10
2023-01-23T03:42:21.602Z,40.87
2023-01-23T03:44:49.296Z,34.93
2023-01-23T03:47:16.457Z,34.67
2023-01-23T03:49:43.553Z,41.70
2023-01-23T03:52:10.445Z,34.47
2023-01-23T03:54:38.533Z,33.77
2023-01-23T03:57:05.696Z,42.50
2023-01-23T03:59:32.988Z,33.43
2023-01-23T04:02:00.935Z,42.93
2023-01-23T04:04:28.914Z,30.00
2023-01-23T04:06:55.807Z,47.00
2023-01-23T04:09:27.586Z,43.37
2023-01-23T04:11:55.848Z,35.50
2023-01-23T04:14:24.788Z,37.47
2023-01-23T04:16:52.697Z,37.87
2023-01-23T04:19:20.304Z,36.10
2023-01-23T04:21:49.036Z,32.07
2023-01-23T04:24:17.267Z,38.67
2023-01-23T04:26:44.881Z,43.70
2023-01-23T04:29:12.428Z,42.33
2023-01-23T04:31:40.593Z,43.53
2023-01-23T04:34:07.549Z,41.80
2023-01-23T04:36:34.618Z,43.60
2023-01-23T04:39:03.212Z,49.63
2023-01-23T04:41:31.484Z,47.17
2023-01-23T04:44:20.333Z,49.30
2023-01-23T04:46:50.009Z,47.17
2023-01-23T04:49:18.866Z,38.90
2023-01-23T04:51:50.107Z,46.07
2023-01-23T04:54:18.436Z,44.87
2023-01-23T04:56:45.782Z,37.37
2023-01-23T04:59:13.450Z,37.47
2023-01-23T05:01:40.798Z,51.53
2023-01-23T05:04:07.839Z,39.07
2023-01-23T05:06:34.986Z,41.00
2023-01-23T05:09:02.241Z,50.20
2023-01-23T05:11:29.706Z,49.17
2023-01-23T05:13:57.791Z,42.10
2023-01-23T05:16:24.877Z,48.03
2023-01-23T05:18:51.911Z,47.90
2023-01-23T05:21:18.845Z,41.20
2023-01-23T05:23:46.850Z,51.13
2023-01-23T05:26:13.674Z,44.63
2023-01-23T05:28:40.589Z,47.00
2023-01-23T05:31:08.559Z,47.93
2023-01-23T05:33:35.458Z,56.63
2023-01-23T05:36:02.585Z,47.63
2023-01-23T05:38:29.591Z,45.73
2023-01-23T05:40:56.659Z,45.23
2023-01-23T05:43:23.797Z,38.63
2023-01-23T05:45:51.002Z,35.77
2023-01-23T05:48:18.955Z,38.83
2023-01-23T05:50:45.760Z,40.60
2023-01-23T05:53:12.718Z,43.43
2023-01-23T05:55:39.810Z,43.37
2023-01-23T05:58:06.781Z,39.93
2023-01-23T06:00:34.040Z,44.73
2023-01-23T06:03:01.114Z,40.63
2023-01-23T06:05:28.295Z,41.30
2023-01-23T06:07:55.479Z,42.10
2023-01-23T06:10:22.675Z,41.53
2023-01-23T06:12:49.759Z,42.03
2023-01-23T06:15:16.743Z,44.83
2023-01-23T06:17:43.887Z,39.23
2023-01-23T06:20:12.622Z,55.27
2023-01-23T06:22:39.654Z,46.37
2023-01-23T06:25:07.105Z,43.87
2023-01-23T06:27:34.675Z,50.57
2023-01-23T06:30:02.285Z,41.67
2023-01-23T06:32:29.499Z,38.70
2023-01-23T06:34:56.357Z,49.17
2023-01-23T06:37:23.323Z,45.00
2023-01-23T06:39:50.375Z,40.50
2023-01-23T06:42:17.274Z,45.80
2023-01-23T06:44:44.986Z,42.80
2023-01-23T06:47:11.791Z,39.93
2023-01-23T06:49:38.840Z,38.50
2023-01-23T06:52:06.005Z,39.23
2023-01-23T06:54:34.259Z,38.07
2023-01-23T06:57:01.394Z,37.13
2023-01-23T06:59:28.624Z,40.10
2023-01-23T07:01:56.655Z,40.47
2023-01-23T07:04:24.941Z,34.73
2023-01-23T07:06:51.796Z,36.40
2023-01-23T07:09:19.035Z,33.47
2023-01-23T07:11:46.229Z,43.87
2023-01-23T07:14:15.120Z,40.20
2023-01-23T07:16:43.162Z,34.97
2023-01-23T07:19:12.611Z,46.80
2023-01-23T07:21:39.722Z,44.43
2023-01-23T07:24:06.913Z,43.57
2023-01-23T07:26:34.009Z,41.27
2023-01-23T07:29:00.799Z,44.53
2023-01-23T07:31:27.839Z,41.50
2023-01-23T07:33:57.062Z,46.23
2023-01-23T07:36:24.223Z,41.63
2023-01-23T07:38:51.407Z,41.47
2023-01-23T07:41:24.457Z,47.03
2023-01-23T07:43:52.444Z,46.33
2023-01-23T07:46:19.582Z,39.70
2023-01-23T07:48:47.625Z,39.90
2023-01-23T07:51:15.508Z,44.20
2023-01-23T07:53:42.362Z,45.97
2023-01-23T07:56:09.296Z,46.63
2023-01-23T07:58:36.194Z,50.40
2023-01-23T08:01:15.599Z,47.57
2023-01-23T08:03:53.605Z,51.17
2023-01-23T08:06:21.120Z,48.47
2023-01-23T08:08:49.156Z,47.20
2023-01-23T08:11:16.992Z,42.67
2023-01-23T08:13:44.095Z,44.73
2023-01-23T08:16:13.601Z,45.63
2023-01-23T08:18:40.746Z,43.27
2023-01-23T08:21:09.970Z,43.17
2023-01-23T08:23:37.076Z,52.33
2023-01-23T08:26:06.599Z,53.50
2023-01-23T08:28:33.559Z,39.60
2023-01-23T08:31:05.481Z,43.23
2023-01-23T08:33:34.946Z,49.77
2023-01-23T08:36:02.425Z,48.57
2023-01-23T08:38:30.524Z,47.57
2023-01-23T08:41:00.922Z,44.87
2023-01-23T08:43:29.858Z,46.13
2023-01-23T08:45:58.463Z,47.67
2023-01-23T08:48:27.718Z,47.93
2023-01-23T08:51:06.419Z,50.93
2023-01-23T08:53:34.623Z,36.80
2023-01-23T08:56:07.268Z,45.97
2023-01-23T08:58:34.712Z,41.80
2023-01-23T09:01:02.007Z,42.23
2023-01-23T09:03:28.987Z,40.37
2023-01-23T09:06:00.044Z,48.20
2023-01-23T09:08:26.854Z,53.07
2023-01-23T09:10:53.735Z,47.63
2023-01-23T09:13:20.583Z,45.33
2023-01-23T09:15:48.949Z,49.77
2023-01-23T09:18:15.848Z,47.03
2023-01-23T09:20:42.949Z,52.77
2023-01-23T09:23:10.177Z,53.10
2023-01-23T09:25:38.217Z,42.73
2023-01-23T09:28:05.395Z,43.50
2023-01-23T09:30:32.452Z,45.53
2023-01-23T09:33:00.478Z,47.30
2023-01-23T09:35:27.670Z,55.10
2023-01-23T09:38:01.254Z,41.60
2023-01-23T09:40:45.150Z,47.57
2023-01-23T09:43:27.008Z,43.27
2023-01-23T09:46:05.555Z,47.97
2023-01-23T09:48:49.578Z,49.13
2023-01-23T09:51:34.732Z,49.03
2023-01-23T09:54:15.255Z,44.83
2023-01-23T09:56:45.772Z,42.10
2023-01-23T09:59:40.381Z,44.93
2023-01-23T10:02:20.209Z,45.90
2023-01-23T10:04:52.745Z,44.43
2023-01-23T10:07:27.645Z,50.43
2023-01-23T10:10:17.431Z,43.00
2023-01-23T10:13:23.497Z,43.17
2023-01-23T10:16:49.443Z,52.20
2023-01-23T10:19:43.249Z,46.60
2023-01-23T10:22:33.670Z,49.07
2023-01-23T10:25:10.354Z,45.97
2023-01-23T10:27:44.473Z,48.67
2023-01-23T10:30:29.999Z,52.27
2023-01-23T10:33:02.298Z,42.37
2023-01-23T10:35:58.276Z,38.83
2023-01-23T10:38:48.510Z,39.60
2023-01-23T10:41:25.807Z,43.40
2023-01-23T10:44:00.501Z,45.40
2023-01-23T10:46:39.598Z,48.90
2023-01-23T10:49:07.465Z,49.97
2023-01-23T10:51:48.895Z,41.70
2023-01-23T10:54:31.712Z,48.10
2023-01-23T10:57:18.784Z,45.30
2023-01-23T10:59:55.718Z,40.93
2023-01-23T11:02:29.964Z,45.03
2023-01-23T11:05:00.390Z,40.57
2023-01-23T11:07:30.736Z,35.97
2023-01-23T11:10:07.998Z,40.37
2023-01-23T11:12:46.799Z,39.67
2023-01-23T11:15:23.807Z,38.13
2023-01-23T11:17:57.263Z,44.73
2023-01-23T11:20:32.215Z,44.27
2023-01-23T11:23:11.007Z,37.17
2023-01-23T11:25:49.706Z,39.53
2023-01-23T11:28:31.927Z,41.87
2023-01-23T11:31:17.766Z,36.73
2023-01-23T11:34:11.530Z,38.70
2023-01-23T11:37:00.062Z,35.97
2023-01-23T11:39:48.916Z,34.10
2023-01-23T11:42:18.085Z,40.33
2023-01-23T11:44:48.130Z,39.10
2023-01-23T11:47:33.076Z,37.77
2023-01-23T11:50:22.888Z,37.57
2023-01-23T11:53:16.592Z,41.13
2023-01-23T11:56:14.178Z,39.27
2023-01-23T11:58:50.590Z,39.93
2023-01-23T12:01:24.525Z,36.63
2023-01-23T12:04:19.736Z,43.53
2023-01-23T12:07:21.314Z,37.80
2023-01-23T12:10:13.380Z,36.93
2023-01-23T12:13:22.476Z,38.80
2023-01-23T12:16:04.781Z,44.73
2023-01-23T12:18:51.462Z,38.30
2023-01-23T12:21:20.843Z,36.33
2023-01-23T12:24:31.627Z,42.77
2023-01-23T12:27:07.018Z,40.00
2023-01-23T12:29:36.849Z,39.57
2023-01-23T12:32:10.772Z,42.03
2023-01-23T12:35:05.567Z,37.60
2023-01-23T12:38:07.226Z,41.70
2023-01-23T12:40:50.692Z,41.03
2023-01-23T12:43:28.384Z,42.40
2023-01-23T12:46:05.911Z,39.43
2023-01-23T12:48:56.041Z,44.50
2023-01-23T12:51:30.973Z,46.70
2023-01-23T12:54:11.866Z,41.63
2023-01-23T12:56:42.595Z,43.03
2023-01-23T12:59:16.359Z,41.97
2023-01-23T13:02:09.834Z,43.10
2023-01-23T13:05:06.200Z,43.37
2023-01-23T13:07:41.565Z,40.77
2023-01-23T13:10:26.727Z,43.17
2023-01-23T13:12:57.339Z,41.43
2023-01-23T13:15:40.438Z,39.30
2023-01-23T13:18:21.465Z,37.80
2023-01-23T13:21:18.585Z,36.40
2023-01-23T13:23:45.950Z,41.67
2023-01-23T13:26:15.726Z,44.63
2023-01-23T13:28:50.580Z,42.37
2023-01-23T13:31:50.630Z,41.70
2023-01-23T13:34:17.742Z,41.07
2023-01-23T13:36:46.286Z,40.03
2023-01-23T13:39:22.452Z,44.77
2023-01-23T13:42:15.037Z,38.47
2023-01-23T13:45:15.074Z,48.87
2023-01-23T14:22:10.644Z,37.23
2023-01-23T14:24:44.469Z,45.27
2023-01-23T14:27:44.499Z,44.70
2023-01-23T14:30:24.835Z,43.70
2023-01-23T14:32:51.863Z,50.00
2023-01-23T14:35:32.988Z,43.70
2023-01-23T14:38:04.836Z,48.50
2023-01-23T14:40:43.482Z,44.07
2023-01-23T14:43:26.902Z,41.90
2023-01-23T14:46:04.388Z,41.10
2023-01-23T14:48:37.096Z,33.70
2023-01-23T14:51:16.630Z,60.03
2023-01-23T14:53:54.577Z,47.60
2023-01-23T14:56:26.355Z,48.23
2023-01-23T14:58:57.246Z,54.67
2023-01-23T15:01:26.508Z,40.73
2023-01-23T15:04:03.294Z,51.20
2023-01-23T15:06:36.488Z,52.90
2023-01-23T15:09:41.459Z,41.90
2023-01-23T15:12:16.411Z,45.70
2023-01-23T15:14:44.517Z,46.00
2023-01-23T15:17:19.693Z,44.53
2023-01-23T15:19:59.510Z,39.83
2023-01-23T15:22:29.885Z,43.60
2023-01-23T15:25:17.554Z,40.27
2023-01-23T15:27:44.767Z,40.57
2023-01-23T15:30:36.681Z,37.83
2023-01-23T15:33:23.095Z,36.10
2023-01-23T15:35:52.501Z,36.90
2023-01-23T15:38:21.741Z,38.43
2023-01-23T15:40:50.640Z,39.50
2023-01-23T15:43:20.916Z,38.20
2023-01-23T15:45:48.249Z,42.77
2023-01-23T15:48:17.846Z,41.70
2023-01-23T15:50:47.821Z,40.90
2023-01-23T15:53:15.600Z,36.77
2023-01-23T15:55:43.854Z,38.17
2023-01-23T15:58:17.872Z,35.27
2023-01-23T16:00:58.094Z,46.43
2023-01-23T16:03:25.166Z,40.13
2023-01-23T16:05:58.848Z,44.07
2023-01-23T16:08:26.827Z,39.37
2023-01-23T16:10:56.275Z,41.93
2023-01-23T16:13:23.622Z,43.67
2023-01-23T16:15:51.027Z,38.57
2023-01-23T16:18:19.374Z,41.30
2023-01-23T16:20:46.973Z,36.67
2023-01-23T16:23:27.882Z,49.73
2023-01-23T16:25:56.822Z,33.00
2023-01-23T16:28:26.654Z,35.87
2023-01-23T16:30:55.020Z,41.40
2023-01-23T16:33:22.716Z,41.57
2023-01-23T16:35:55.861Z,35.37
2023-01-23T16:38:30.080Z,34.37
2023-01-23T16:41:01.618Z,35.27
2023-01-23T16:43:28.856Z,45.67
2023-01-23T16:45:57.859Z,35.83
2023-01-23T16:48:27.984Z,45.07
2023-01-23T16:51:08.685Z,37.17
2023-01-23T16:53:40.716Z,40.80
2023-01-23T16:56:14.848Z,36.43
2023-01-23T16:58:42.053Z,37.87
2023-01-23T17:01:20.582Z,47.80
2023-01-23T17:03:57.075Z,46.13
2023-01-23T17:06:24.079Z,39.47
2023-01-23T17:08:53.541Z,42.07
2023-01-23T17:11:24.980Z,47.73
2023-01-23T17:13:59.541Z,40.27
2023-01-23T17:16:28.216Z,74.40
2023-01-23T17:18:58.971Z,81.93
2023-01-23T17:21:33.113Z,46.57
2023-01-23T17:24:00.079Z,78.13
2023-01-23T17:26:30.133Z,63.50
2023-01-23T17:28:57.284Z,90.37
2023-01-23T17:31:27.610Z,60.47
2023-01-23T17:33:55.872Z,56.40
2023-01-23T17:36:22.905Z,65.97
2023-01-23T17:38:57.860Z,68.07
2023-01-23T17:41:35.931Z,70.47
2023-01-23T17:44:02.777Z,89.20
2023-01-23T17:46:33.916Z,94.03
2023-01-23T17:49:01.216Z,44.40
2023-01-23T17:51:28.225Z,54.20
2023-01-23T17:53:59.163Z,47.43
2023-01-23T17:56:26.198Z,63.40
2023-01-23T17:58:53.060Z,47.93
2023-01-23T18:01:23.690Z,45.30
2023-01-23T18:03:52.007Z,44.60
2023-01-23T18:06:21.270Z,46.13
2023-01-23T18:08:48.385Z,52.00
2023-01-23T18:11:24.840Z,53.10
2023-01-23T18:14:15.400Z,57.73
2023-01-23T18:16:48.285Z,53.37
2023-01-23T18:19:18.192Z,59.37
2023-01-23T18:21:47.760Z,68.37
2023-01-23T18:24:37.417Z,50.10
2023-01-23T18:27:25.341Z,66.63
2023-01-23T18:30:02.215Z,75.13
2023-01-23T18:33:09.826Z,57.90
2023-01-23T18:36:03.862Z,51.43
2023-01-23T18:38:55.184Z,57.03
2023-01-23T18:41:27.098Z,52.27
2023-01-23T18:44:14.914Z,52.50
2023-01-23T18:46:42.079Z,45.90
2023-01-23T18:49:21.499Z,47.83
2023-01-23T18:52:11.925Z,42.57
2023-01-23T18:54:42.498Z,43.30
2023-01-23T18:57:45.364Z,57.43
2023-01-23T19:00:19.923Z,55.80
2023-01-23T19:02:52.477Z,45.20
2023-01-23T19:05:32.909Z,51.13
2023-01-23T19:08:02.352Z,61.07
2023-01-23T19:10:47.648Z,55.10
2023-01-23T19:13:42.287Z,62.30
2023-01-23T19:16:31.715Z,47.27
2023-01-23T19:19:15.590Z,73.23
2023-01-23T19:21:46.981Z,65.77
2023-01-23T19:24:18.147Z,53.13
2023-01-23T19:26:46.869Z,57.40
2023-01-23T19:29:21.881Z,68.00
2023-01-23T19:32:03.553Z,62.70
2023-01-23T19:34:34.107Z,74.37
2023-01-23T19:37:01.303Z,74.27
2023-01-23T19:39:29.512Z,70.60
2023-01-23T19:41:59.268Z,52.57
2023-01-23T19:44:29.043Z,86.47
2023-01-23T19:46:56.244Z,64.10
2023-01-23T19:49:23.201Z,65.70
2023-01-23T19:51:50.361Z,89.20
2023-01-23T19:54:17.577Z,51.63
2023-01-23T19:56:44.599Z,51.83
2023-01-23T19:59:11.584Z,93.27
2023-01-23T20:01:45.647Z,59.20
2023-01-23T20:04:16.287Z,50.47
2023-01-23T20:06:45.462Z,51.10
2023-01-23T20:09:15.063Z,47.83
2023-01-23T20:11:43.172Z,50.20
2023-01-23T20:14:10.924Z,54.37
2023-01-23T20:16:40.388Z,56.20
2023-01-23T20:19:07.682Z,49.63
2023-01-23T20:21:34.829Z,64.20
2023-01-23T20:24:01.713Z,57.13
2023-01-23T20:26:28.727Z,54.63
2023-01-23T20:28:55.543Z,49.73
2023-01-23T20:31:22.897Z,55.27
2023-01-23T20:33:50.693Z,56.87
2023-01-23T20:36:18.878Z,51.97
2023-01-23T20:38:46.268Z,60.20
2023-01-23T20:41:15.705Z,51.33
2023-01-23T20:43:43.480Z,53.17
2023-01-23T20:46:11.604Z,53.70
2023-01-23T20:48:40.924Z,60.83
2023-01-23T20:51:09.804Z,52.27
2023-01-23T20:53:39.663Z,55.93
2023-01-23T20:56:08.045Z,54.90
2023-01-23T20:58:54.998Z,54.60
2023-01-23T21:01:23.712Z,47.53
2023-01-23T21:03:50.992Z,55.33
2023-01-23T21:06:18.864Z,52.20
2023-01-23T21:08:46.474Z,46.70
2023-01-23T21:11:18.483Z,52.37
2023-01-23T21:13:55.382Z,52.00
2023-01-23T21:16:22.810Z,49.87
2023-01-23T21:18:50.118Z,53.97
2023-01-23T21:21:20.787Z,55.93
2023-01-23T21:23:49.362Z,54.07
2023-01-23T21:26:18.969Z,53.33
2023-01-23T21:28:48.128Z,60.97
2023-01-23T21:31:19.315Z,55.40
2023-01-23T21:33:46.821Z,62.97
2023-01-23T21:36:17.335Z,62.93
2023-01-23T21:38:45.159Z,60.23
2023-01-23T21:41:12.172Z,65.33
2023-01-23T21:43:39.215Z,67.07
2023-01-23T21:46:06.546Z,59.40
2023-01-23T21:48:34.548Z,82.90
2023-01-23T21:51:10.086Z,57.07
2023-01-23T21:53:39.359Z,61.20
2023-01-23T21:56:07.335Z,57.47
2023-01-23T21:58:38.092Z,58.80
2023-01-23T22:01:26.422Z,64.57
2023-01-23T22:04:09.362Z,61.17
2023-01-23T22:06:42.512Z,63.10
2023-01-23T22:09:13.857Z,68.60
2023-01-23T22:11:41.559Z,66.27
2023-01-23T22:14:09.903Z,58.13
2023-01-23T22:16:47.891Z,69.07
2023-01-23T22:19:20.290Z,66.83
2023-01-23T22:21:48.341Z,63.93
2023-01-23T22:24:15.679Z,69.60
2023-01-23T22:26:43.200Z,56.90
2023-01-23T22:29:12.139Z,57.67
2023-01-23T22:31:39.150Z,81.20
2023-01-23T22:34:06.129Z,60.83
2023-01-23T22:36:32.991Z,62.23
2023-01-23T22:39:00.004Z,67.77
2023-01-23T22:41:28.712Z,65.43
2023-01-23T22:43:56.949Z,68.73
2023-01-23T22:46:24.310Z,106.40
2023-01-23T22:48:51.759Z,66.53
2023-01-23T22:51:24.192Z,71.20
2023-01-23T22:53:52.637Z,68.03
2023-01-23T22:56:19.480Z,81.97
2023-01-23T22:58:47.459Z,68.60
2023-01-23T23:01:14.369Z,67.63
2023-01-23T23:03:41.546Z,58.83
2023-01-23T23:06:11.676Z,80.50
2023-01-23T23:08:38.608Z,64.10
2023-01-23T23:11:11.061Z,69.23
2023-01-23T23:13:40.199Z,69.17
2023-01-23T23:16:12.953Z,67.70
2023-01-23T23:18:40.901Z,69.60
2023-01-23T23:21:15.979Z,63.70
2023-01-23T23:23:43.332Z,63.83
2023-01-23T23:26:11.080Z,72.27
2023-01-23T23:28:38.691Z,73.03
2023-01-23T23:31:07.645Z,74.40
2023-01-23T23:33:35.710Z,90.63
2023-01-23T23:36:02.847Z,73.27
2023-01-23T23:38:30.888Z,85.27
2023-01-23T23:41:08.871Z,64.87
2023-01-23T23:43:35.871Z,62.80
2023-01-23T23:46:05.827Z,75.37
2023-01-23T23:48:34.741Z,83.90
2023-01-23T23:51:03.768Z,84.40
2023-01-23T23:53:31.264Z,66.47
2023-01-23T23:55:58.586Z,79.20
2023-01-23T23:58:25.638Z,107.53
